Time;durP1;ratioP1;P1;durP2;ratioP2;P2;SDS_P1;SDS_P2;PMS_P1;PMS_P2;Temp;Humidity;BMP_temperature;BMP_pressure;BME280_temperature;BME280_humidity;BME280_pressure;Samples;Min_cycle;Max_cycle;Signal;HPM_P1;HPM_P2
2021/03/27 00:02:00;;;;;;;6.28;3.40;;;;;;;8.27;64.02;99020.28;4991967;28;20161;-60
2021/03/27 00:04:49;;;;;;;6.03;3.13;;;;;;;8.23;64.59;99025.28;4992678;28;20110;-59
2021/03/27 00:07:30;;;;;;;7.40;3.50;;;;;;;8.02;65.03;99023.19;4991960;28;20381;-59
2021/03/27 00:10:20;;;;;;;5.85;3.40;;;;;;;7.98;65.00;99031.63;4993485;28;20053;-59
2021/03/27 00:13:10;;;;;;;5.55;3.20;;;;;;;7.98;64.89;99034.28;4993196;28;20042;-59
2021/03/27 00:15:39;;;;;;;5.30;3.45;;;;;;;7.85;65.86;99031.84;4991877;28;20100;-60
2021/03/27 00:18:11;;;;;;;5.32;3.53;;;;;;;7.82;65.22;99040.31;4991972;28;20485;-60
2021/03/27 00:20:59;;;;;;;7.90;3.70;;;;;;;7.85;65.18;99042.53;4992886;28;20050;-60
2021/03/27 00:23:29;;;;;;;6.88;3.70;;;;;;;7.81;64.83;99041.34;4943614;28;20092;-60
2021/03/27 00:26:10;;;;;;;5.55;3.40;;;;;;;7.94;64.55;99043.03;4976018;28;20400;-59
2021/03/27 00:28:40;;;;;;;5.53;3.58;;;;;;;7.93;64.10;99052.84;4977425;28;20081;-59
2021/03/27 00:31:11;;;;;;;5.63;3.05;;;;;;;8.08;63.72;99048.94;4991718;28;20038;-59
2021/03/27 00:33:38;;;;;;;3.80;2.40;;;;;;;8.12;63.09;99048.25;4992440;28;20050;-59
2021/03/27 00:36:32;;;;;;;5.13;3.60;;;;;;;8.13;64.56;99049.06;4991589;28;20066;-60
2021/03/27 00:39:10;;;;;;;6.68;3.28;;;;;;;8.34;62.31;99053.84;4991491;28;20061;-59
2021/03/27 00:41:39;;;;;;;5.45;3.85;;;;;;;8.31;64.84;99054.31;4975199;28;20497;-60
2021/03/27 00:44:10;;;;;;;7.45;3.72;;;;;;;8.36;63.00;99056.25;4976051;28;20373;-59
2021/03/27 00:46:36;;;;;;;6.82;4.00;;;;;;;8.52;62.15;99065.50;4991385;28;20042;-60
2021/03/27 00:49:15;;;;;;;10.90;3.90;;;;;;;8.49;62.41;99053.41;4975950;28;20034;-60
2021/03/27 00:51:54;;;;;;;7.00;4.25;;;;;;;8.51;62.76;99048.66;4976786;28;20054;-60
2021/03/27 00:54:28;;;;;;;7.28;3.63;;;;;;;8.49;62.77;99042.72;4992061;28;20504;-59
2021/03/27 00:57:14;;;;;;;5.20;3.65;;;;;;;8.39;63.88;99051.31;4975714;28;20477;-60
2021/03/27 00:59:49;;;;;;;6.60;3.85;;;;;;;8.37;64.72;99063.25;4992657;28;20485;-60
2021/03/27 01:02:15;;;;;;;5.18;3.03;;;;;;;8.40;64.59;99054.78;4991674;28;20094;-60
2021/03/27 01:04:40;;;;;;;6.10;3.90;;;;;;;8.41;64.48;99065.25;4991885;28;20096;-60
2021/03/27 01:07:08;;;;;;;4.90;3.53;;;;;;;8.20;65.90;99089.81;4975309;28;20062;-60
2021/03/27 01:09:55;;;;;;;8.35;3.80;;;;;;;8.21;66.33;99099.44;4991946;28;20049;-60
2021/03/27 01:12:41;;;;;;;5.88;3.88;;;;;;;8.05;67.13;99116.13;4992758;28;20413;-60
2021/03/27 01:15:33;;;;;;;6.88;4.00;;;;;;;8.02;68.02;99116.59;4991111;28;20038;-60
2021/03/27 01:18:01;;;;;;;5.28;3.67;;;;;;;8.00;68.02;99127.50;4991937;28;20085;-60
2021/03/27 01:20:30;;;;;;;8.25;3.80;;;;;;;8.06;68.24;99123.09;4991451;28;20370;-60
2021/03/27 01:22:56;;;;;;;5.45;3.67;;;;;;;8.03;68.56;99132.38;4991504;28;20033;-60
2021/03/27 01:25:29;;;;;;;5.00;3.10;;;;;;;8.02;68.66;99136.09;4992755;28;20062;-60
2021/03/27 01:28:31;;;;;;;4.47;2.60;;;;;;;7.91;66.63;99142.19;4992773;28;20027;-60
2021/03/27 01:31:25;;;;;;;2.72;1.70;;;;;;;7.68;63.06;99142.94;4992391;28;20038;-60
2021/03/27 01:34:00;;;;;;;1.27;1.13;;;;;;;7.45;62.97;99152.44;4994080;28;20038;-60
2021/03/27 01:36:46;;;;;;;1.60;1.50;;;;;;;7.30;63.29;99160.81;4994642;28;20050;-60
2021/03/27 01:39:23;;;;;;;1.50;1.40;;;;;;;7.21;63.94;99172.00;4995047;28;20038;-60
2021/03/27 01:42:22;;;;;;;1.40;1.30;;;;;;;7.16;64.29;99185.16;4994363;28;20454;-60
2021/03/27 01:45:00;;;;;;;1.60;1.30;;;;;;;6.96;63.96;99196.03;4995207;28;20061;-60
2021/03/27 01:47:40;;;;;;;3.00;1.40;;;;;;;6.89;63.63;99196.91;4994843;28;20043;-60
2021/03/27 01:50:09;;;;;;;1.45;1.35;;;;;;;6.68;65.17;99197.31;4994608;28;20038;-60
2021/03/27 01:52:46;;;;;;;2.55;1.48;;;;;;;6.63;64.80;99195.28;4995159;28;20034;-60
2021/03/27 01:55:33;;;;;;;1.48;1.38;;;;;;;6.55;64.62;99208.88;4994634;28;20049;-60
2021/03/27 01:58:36;;;;;;;1.88;1.55;;;;;;;6.44;64.61;99231.69;4994806;28;20045;-60
2021/03/27 02:01:28;;;;;;;1.30;1.20;;;;;;;6.40;65.23;99235.81;4995560;28;20480;-60
2021/03/27 02:04:08;;;;;;;1.38;1.27;;;;;;;6.30;64.73;99250.63;4987754;28;20093;-60
2021/03/27 02:06:59;;;;;;;1.73;1.20;;;;;;;6.27;64.41;99265.19;4995538;28;20042;-60
2021/03/27 02:09:34;;;;;;;1.60;1.20;;;;;;;6.16;63.80;99256.00;4994295;28;20046;-60
2021/03/27 02:12:17;;;;;;;1.30;1.20;;;;;;;6.15;65.08;99264.22;4994156;28;20049;-60
2021/03/27 02:14:58;;;;;;;1.95;1.40;;;;;;;6.08;65.28;99285.53;4995731;28;20034;-60
2021/03/27 02:17:40;;;;;;;2.17;1.30;;;;;;;6.05;64.66;99294.75;4993880;28;20043;-60
2021/03/27 02:20:20;;;;;;;1.20;1.10;;;;;;;6.01;65.77;99298.84;4994012;28;20050;-60
2021/03/27 02:23:10;;;;;;;1.17;1.15;;;;;;;5.95;65.02;99296.25;4995757;28;20113;-60
2021/03/27 02:25:44;;;;;;;1.73;1.23;;;;;;;5.82;65.69;99286.44;4995004;28;20101;-60
2021/03/27 02:28:37;;;;;;;1.00;1.00;;;;;;;5.78;64.91;99296.66;4995723;28;20035;-60
2021/03/27 02:31:23;;;;;;;1.20;1.10;;;;;;;5.71;65.25;99287.88;4995087;28;20050;-60
2021/03/27 02:33:55;;;;;;;1.27;1.05;;;;;;;5.65;66.64;99299.38;4995271;28;20041;-60
2021/03/27 02:36:45;;;;;;;1.10;1.02;;;;;;;5.62;65.82;99310.44;4977759;28;20040;-60
2021/03/27 02:39:48;;;;;;;1.27;1.00;;;;;;;5.57;65.82;99320.88;4995272;28;20046;-60
2021/03/27 02:42:38;;;;;;;1.20;1.13;;;;;;;5.52;66.10;99318.03;4934751;29;20190;-60
2021/03/27 02:45:15;;;;;;;1.63;1.30;;;;;;;5.53;65.92;99314.31;4919463;28;20034;-60
2021/03/27 02:48:12;;;;;;;1.92;1.38;;;;;;;5.58;66.36;99322.50;4955080;28;20397;-60
2021/03/27 02:51:02;;;;;;;1.23;1.13;;;;;;;5.45;66.57;99323.34;4994533;28;20042;-60
2021/03/27 02:53:46;;;;;;;1.30;1.20;;;;;;;5.43;66.72;99329.88;4993815;28;20121;-60
2021/03/27 02:56:24;;;;;;;1.20;1.10;;;;;;;5.38;66.77;99338.47;4993437;28;20401;-60
2021/03/27 02:59:27;;;;;;;1.52;1.10;;;;;;;5.33;66.68;99336.44;4994852;28;20038;-60
2021/03/27 03:02:15;;;;;;;1.73;1.30;;;;;;;5.26;66.92;99327.63;4994356;28;20065;-60
2021/03/27 03:04:59;;;;;;;2.05;1.27;;;;;;;5.29;65.93;99331.72;4978460;28;20026;-60
2021/03/27 03:07:42;;;;;;;1.08;0.98;;;;;;;5.28;66.18;99341.53;4994334;28;20109;-60
2021/03/27 03:10:18;;;;;;;0.90;0.90;;;;;;;5.13;67.00;99352.38;4994160;28;20050;-60
2021/03/27 03:12:55;;;;;;;1.23;1.10;;;;;;;5.05;66.90;99349.94;4994579;28;20488;-60
2021/03/27 03:15:33;;;;;;;1.50;1.10;;;;;;;5.05;67.77;99359.75;4977362;28;20124;-60
2021/03/27 03:18:37;;;;;;;2.63;1.10;;;;;;;4.93;66.90;99365.63;4994714;28;20117;-60
2021/03/27 03:21:21;;;;;;;2.40;1.00;;;;;;;4.98;66.72;99370.34;4993963;28;20061;-60
2021/03/27 03:23:59;;;;;;;1.55;1.17;;;;;;;4.82;67.74;99370.72;4994355;28;20117;-60
2021/03/27 03:26:40;;;;;;;1.75;1.00;;;;;;;4.88;67.67;99369.94;4993950;28;20058;-60
2021/03/27 03:29:28;;;;;;;;;;;;;;;4.86;68.54;99380.75;4993689;28;20026;-60
2021/03/27 03:32:35;;;;;;;4.63;1.02;;;;;;;4.98;66.81;99381.78;4992560;28;19913;-60
2021/03/27 03:35:14;;;;;;;2.83;1.30;;;;;;;4.94;67.11;99385.88;4964510;28;20374;-60
2021/03/27 03:37:54;;;;;;;3.00;1.40;;;;;;;4.89;65.85;99396.28;4977652;28;20413;-60
2021/03/27 03:40:43;;;;;;;3.55;1.23;;;;;;;4.81;65.97;99401.78;4992428;28;20041;-60
2021/03/27 03:43:23;;;;;;;2.15;1.05;;;;;;;4.88;66.25;99401.81;4993015;28;20022;-60
2021/03/27 03:46:09;;;;;;;5.07;1.38;;;;;;;4.88;65.62;99405.25;4992516;28;20116;-60
2021/03/27 03:49:04;;;;;;;1.70;1.30;;;;;;;4.75;66.68;99410.56;4992774;28;20037;-60
2021/03/27 03:51:53;;;;;;;2.95;1.38;;;;;;;4.83;67.69;99426.31;4993593;28;20503;-60
2021/03/27 03:54:27;;;;;;;4.43;1.50;;;;;;;4.71;67.20;99438.50;4992948;28;20038;-60
2021/03/27 03:57:19;;;;;;;1.80;1.30;;;;;;;4.80;66.67;99447.13;4992929;28;20089;-60
2021/03/27 03:59:52;;;;;;;7.00;1.70;;;;;;;4.81;66.87;99443.44;4993236;28;20030;-60
2021/03/27 04:02:27;;;;;;;1.65;1.20;;;;;;;4.88;65.82;99446.94;4992125;28;20045;-60
2021/03/27 04:04:58;;;;;;;2.47;1.50;;;;;;;4.90;65.94;99447.56;4993858;28;20062;-60
2021/03/27 04:07:44;;;;;;;4.00;1.60;;;;;;;4.88;66.37;99455.72;4976198;28;20042;-60
2021/03/27 04:10:10;;;;;;;3.60;1.38;;;;;;;4.90;66.51;99456.34;4976029;28;20104;-60
2021/03/27 04:12:41;;;;;;;3.95;1.60;;;;;;;4.77;66.40;99458.97;4993988;28;20035;-60
2021/03/27 04:15:34;;;;;;;4.72;1.85;;;;;;;4.83;65.03;99458.16;4992025;28;20033;-59
2021/03/27 04:18:30;;;;;;;5.47;1.58;;;;;;;4.79;64.90;99478.16;4992308;28;20034;-60
2021/03/27 04:21:08;;;;;;;4.07;1.67;;;;;;;4.67;64.98;99485.91;4993164;28;20517;-60
2021/03/27 04:23:52;;;;;;;2.58;1.35;;;;;;;4.59;65.41;99474.63;4977312;28;20030;-60
2021/03/27 04:26:23;;;;;;;4.60;1.60;;;;;;;4.69;63.89;99480.38;4992923;28;20051;-60
2021/03/27 04:28:54;;;;;;;;;;;;;;;4.66;66.01;99463.00;4994169;28;20035;-60
2021/03/27 04:31:37;;;;;;;3.13;1.60;;;;;;;4.54;63.37;99480.50;4993166;28;19918;-60
2021/03/27 04:34:13;;;;;;;3.78;1.40;;;;;;;4.41;62.11;99475.97;4976688;28;20031;-59
2021/03/27 04:36:58;;;;;;;5.97;1.83;;;;;;;4.25;62.57;99473.63;4991846;28;20045;-59
2021/03/27 04:39:47;;;;;;;2.55;1.50;;;;;;;4.22;62.45;99474.00;4992175;28;20065;-60
2021/03/27 04:42:20;;;;;;;4.78;1.70;;;;;;;4.13;62.05;99478.66;4991846;28;20464;-60
2021/03/27 04:44:48;;;;;;;4.63;1.75;;;;;;;4.15;62.28;99489.09;4976241;28;20034;-59
2021/03/27 04:47:26;;;;;;;6.60;1.92;;;;;;;4.03;62.24;99481.66;4991657;28;20450;-60
2021/03/27 04:50:29;;;;;;;3.50;1.27;;;;;;;3.96;62.64;99495.88;4992079;28;20465;-59
2021/03/27 04:53:25;;;;;;;3.55;1.50;;;;;;;3.98;62.67;99510.59;4992963;28;20128;-60
2021/03/27 04:56:24;;;;;;;4.05;1.65;;;;;;;3.94;63.47;99511.16;4993046;28;20046;-60
2021/03/27 04:59:28;;;;;;;2.70;1.50;;;;;;;3.89;62.92;99517.03;4992143;28;20046;-59
2021/03/27 05:02:05;;;;;;;7.63;1.58;;;;;;;3.88;63.23;99510.91;4991484;28;20050;-60
2021/03/27 05:04:56;;;;;;;2.42;1.50;;;;;;;3.84;63.98;99516.78;4977175;28;20038;-60
2021/03/27 05:07:33;;;;;;;4.30;1.40;;;;;;;3.82;63.97;99534.72;4976170;28;20416;-60
2021/03/27 05:10:04;;;;;;;5.30;1.67;;;;;;;3.82;63.22;99534.72;4994700;28;20125;-59
2021/03/27 05:12:54;;;;;;;4.28;1.77;;;;;;;3.82;62.78;99537.38;4995492;28;20042;-60
2021/03/27 05:15:23;;;;;;;5.53;1.70;;;;;;;3.76;62.86;99544.25;4981771;28;20096;-60
2021/03/27 05:17:51;;;;;;;6.22;1.70;;;;;;;3.78;62.99;99544.09;4979347;28;20109;-59
2021/03/27 05:20:24;;;;;;;3.80;1.83;;;;;;;3.79;63.15;99558.97;4995042;28;20071;-59
2021/03/27 05:23:13;;;;;;;9.15;1.95;;;;;;;3.76;62.61;99562.81;4995464;28;20034;-60
2021/03/27 05:26:08;;;;;;;4.50;1.60;;;;;;;3.80;62.56;99563.28;4996295;28;20053;-59
2021/03/27 05:28:57;;;;;;;4.40;1.75;;;;;;;3.75;62.67;99569.16;4995172;28;20452;-60
2021/03/27 05:31:28;;;;;;;4.38;1.55;;;;;;;3.82;62.72;99571.84;4968061;28;20069;-60
2021/03/27 05:33:59;;;;;;;;;;;;;;;3.85;62.47;99582.09;4996880;28;20037;-60
2021/03/27 05:36:47;;;;;;;3.47;1.42;;;;;;;3.93;61.87;99578.50;4995917;28;20034;-60
2021/03/27 05:39:24;;;;;;;4.57;1.75;;;;;;;3.93;62.98;99573.19;4968521;28;20049;-60
2021/03/27 05:42:00;;;;;;;6.75;1.80;;;;;;;3.91;61.56;99581.31;4995821;28;20197;-60
2021/03/27 05:44:39;;;;;;;6.05;1.85;;;;;;;3.83;61.65;99578.81;4995078;28;20035;-60
2021/03/27 05:47:26;;;;;;;8.05;1.73;;;;;;;3.73;63.40;99588.91;4995682;28;20437;-60
2021/03/27 05:49:58;;;;;;;5.95;2.05;;;;;;;3.63;64.98;99597.16;4994890;28;20030;-59
2021/03/27 05:52:46;;;;;;;3.78;1.80;;;;;;;3.48;66.21;99601.69;4995859;28;20050;-62
2021/03/27 05:55:36;;;;;;;4.10;1.85;;;;;;;3.39;68.11;99598.31;4994622;28;20384;-59
2021/03/27 05:58:25;;;;;;;2.45;1.50;;;;;;;3.37;68.31;99608.28;4980538;28;20026;-59
2021/03/27 06:01:08;;;;;;;4.97;1.70;;;;;;;3.40;69.88;99605.28;4994511;28;20058;-59
2021/03/27 06:04:07;;;;;;;4.30;1.70;;;;;;;3.50;68.46;99605.00;4994652;28;20034;-60
2021/03/27 06:06:45;;;;;;;4.65;1.65;;;;;;;3.58;68.61;99608.31;4995481;28;20112;-60
2021/03/27 06:09:47;;;;;;;3.35;1.67;;;;;;;3.53;69.40;99586.06;4995599;28;20150;-59
2021/03/27 06:12:36;;;;;;;5.35;1.77;;;;;;;3.38;70.42;99588.75;4995232;28;20046;-60
2021/03/27 06:15:14;;;;;;;4.22;1.95;;;;;;;3.42;71.01;99614.69;4995251;28;20030;-59
2021/03/27 06:18:13;;;;;;;4.40;1.90;;;;;;;5.76;62.26;99612.56;4994592;28;20066;-59
2021/03/27 06:20:47;;;;;;;3.20;1.50;;;;;;;5.21;63.06;99613.63;4994697;28;20046;-59
2021/03/27 06:23:40;;;;;;;3.92;1.75;;;;;;;6.93;57.75;99618.31;4995431;28;20374;-59
2021/03/27 06:26:14;;;;;;;3.53;1.92;;;;;;;5.22;62.90;99616.09;4995202;28;20462;-60
2021/03/27 06:29:02;;;;;;;7.40;2.00;;;;;;;6.17;60.57;99624.13;4995474;28;20385;-59
2021/03/27 06:31:55;;;;;;;4.40;2.00;;;;;;;6.45;59.61;99610.59;4985585;28;20050;-59
2021/03/27 06:34:51;;;;;;;4.05;1.85;;;;;;;5.04;64.46;99626.41;4980404;28;20066;-60
2021/03/27 06:37:22;;;;;;;5.70;1.90;;;;;;;4.61;65.86;99629.22;4993773;28;20477;-59
2021/03/27 06:40:05;;;;;;;3.97;2.00;;;;;;;4.62;66.43;99633.50;4995174;28;20031;-59
2021/03/27 06:42:55;;;;;;;5.97;2.20;;;;;;;4.49;67.88;99619.16;4994857;28;20050;-59
2021/03/27 06:45:36;;;;;;;6.17;2.50;;;;;;;4.54;66.72;99637.97;4994743;28;20057;-59
2021/03/27 06:48:19;;;;;;;3.95;2.00;;;;;;;5.45;63.67;99637.03;4995066;28;20260;-59
2021/03/27 06:51:24;;;;;;;5.47;2.08;;;;;;;7.06;57.63;99650.28;4994751;28;20049;-59
2021/03/27 06:54:23;;;;;;;4.97;2.28;;;;;;;7.22;58.14;99632.97;4980487;28;20031;-59
2021/03/27 06:57:30;;;;;;;3.47;2.05;;;;;;;8.37;53.69;99640.94;4990802;28;20069;-59
2021/03/27 07:00:13;;;;;;;6.90;2.22;;;;;;;8.90;52.80;99654.91;4966822;28;20034;-59
2021/03/27 07:02:56;;;;;;;8.27;2.60;;;;;;;9.00;51.05;99655.19;4994460;28;20049;-59
2021/03/27 07:05:44;;;;;;;4.82;2.28;;;;;;;10.93;45.57;99655.16;4994554;28;20038;-59
2021/03/27 07:08:30;;;;;;;3.88;2.15;;;;;;;10.23;48.06;99659.38;4994779;28;20089;-60
2021/03/27 07:11:20;;;;;;;3.60;2.33;;;;;;;9.96;47.53;99653.63;4994280;28;20096;-59
2021/03/27 07:14:17;;;;;;;10.07;2.30;;;;;;;9.51;49.30;99667.41;4994750;28;20040;-60
2021/03/27 07:16:48;;;;;;;5.00;2.03;;;;;;;8.17;52.54;99664.31;4992946;28;20496;-59
2021/03/27 07:19:42;;;;;;;8.07;2.30;;;;;;;8.44;53.14;99662.28;4994399;28;20061;-59
2021/03/27 07:22:27;;;;;;;7.25;2.55;;;;;;;9.56;49.88;99672.88;4993979;28;20065;-59
2021/03/27 07:25:21;;;;;;;6.97;2.45;;;;;;;8.95;52.39;99682.59;4993111;28;20057;-59
2021/03/27 07:27:49;;;;;;;7.05;2.28;;;;;;;8.75;51.45;99688.13;4994326;28;20397;-59
2021/03/27 07:30:23;;;;;;;8.02;3.08;;;;;;;7.57;55.52;99691.31;4993986;28;20033;-59
2021/03/27 07:32:59;;;;;;;7.18;2.35;;;;;;;6.78;61.34;99700.31;4993724;28;20022;-60
2021/03/27 07:35:36;;;;;;;8.93;2.22;;;;;;;6.34;63.04;99699.06;4993812;28;20414;-59
2021/03/27 07:38:20;;;;;;;5.80;2.47;;;;;;;6.24;64.14;99704.78;4992836;28;20030;-60
2021/03/27 07:41:03;;;;;;;6.55;2.83;;;;;;;6.70;62.69;99715.47;4993754;28;20049;-58
2021/03/27 07:43:34;;;;;;;8.77;2.70;;;;;;;6.89;62.82;99702.38;4992960;28;20469;-58
2021/03/27 07:46:09;;;;;;;6.60;2.83;;;;;;;7.53;57.93;99708.78;4992154;28;20684;-58
2021/03/27 07:48:44;;;;;;;6.15;2.38;;;;;;;8.41;55.12;99732.16;4993956;28;20030;-59
2021/03/27 07:51:37;;;;;;;7.38;2.35;;;;;;;8.82;53.78;99723.63;4992345;28;20043;-59
2021/03/27 07:54:28;;;;;;;6.25;2.40;;;;;;;9.39;52.00;99728.03;4992519;28;20041;-59
2021/03/27 07:57:37;;;;;;;5.28;2.33;;;;;;;8.91;52.38;99734.03;4985139;28;20492;-60
2021/03/27 08:00:14;;;;;;;6.78;2.22;;;;;;;9.47;51.50;99738.44;4991904;28;20038;-60
2021/03/27 08:02:54;;;;;;;6.95;2.22;;;;;;;8.99;52.21;99741.81;4992623;28;20097;-59
2021/03/27 08:05:52;;;;;;;4.68;2.38;;;;;;;8.84;52.74;99737.59;4992669;28;20038;-58
2021/03/27 08:08:51;;;;;;;5.78;2.30;;;;;;;9.41;50.23;99750.03;4991220;28;20053;-59
2021/03/27 08:11:22;;;;;;;7.43;2.25;;;;;;;9.67;47.81;99744.38;4991879;28;20058;-60
2021/03/27 08:14:12;;;;;;;7.25;2.42;;;;;;;8.70;51.44;99751.28;4992669;28;20057;-60
2021/03/27 08:16:47;;;;;;;7.90;2.10;;;;;;;8.59;52.08;99758.16;4977917;28;20539;-60
2021/03/27 08:19:47;;;;;;;4.40;1.90;;;;;;;8.82;50.85;99760.25;4977334;28;20384;-61
2021/03/27 08:22:50;;;;;;;5.20;2.13;;;;;;;7.64;54.05;99765.97;4993106;28;20046;-60
2021/03/27 08:25:19;;;;;;;7.88;2.13;;;;;;;6.87;57.06;99774.50;4993051;28;20126;-60
2021/03/27 08:28:08;;;;;;;10.38;2.22;;;;;;;7.48;58.14;99785.94;4991576;28;20035;-61
2021/03/27 08:30:50;;;;;;;7.90;2.00;;;;;;;7.46;56.84;99780.81;4991772;28;20043;-60
2021/03/27 08:33:46;;;;;;;6.03;2.33;;;;;;;7.11;56.55;99793.56;4993577;28;20026;-60
2021/03/27 08:36:40;;;;;;;4.85;2.10;;;;;;;8.04;53.73;99796.03;4991975;28;20038;-60
2021/03/27 08:39:25;;;;;;;8.07;2.22;;;;;;;6.75;59.58;99807.28;4985251;28;20046;-60
2021/03/27 08:42:12;;;;;;;7.05;1.83;;;;;;;6.49;63.25;99822.22;4992853;28;20046;-61
2021/03/27 08:45:04;;;;;;;8.55;2.25;;;;;;;6.69;62.28;99816.94;4997397;28;20045;-60
2021/03/27 08:48:10;;;;;;;6.43;2.55;;;;;;;6.47;63.65;99809.09;4997074;28;20141;-60
2021/03/27 08:50:57;;;;;;;10.27;2.90;;;;;;;6.75;61.10;99817.94;4982158;28;20491;-61
2021/03/27 08:53:41;;;;;;;6.90;2.08;;;;;;;6.96;58.75;99814.28;4997390;28;20038;-60
2021/03/27 08:56:28;;;;;;;9.70;2.40;;;;;;;7.01;58.37;99817.94;4996865;28;20129;-60
2021/03/27 08:59:10;;;;;;;7.18;2.63;;;;;;;6.99;57.83;99828.03;4996001;28;20073;-60
2021/03/27 09:02:15;;;;;;;10.82;1.90;;;;;;;6.82;57.50;99843.56;4995364;28;20059;-60
2021/03/27 09:04:43;;;;;;;7.93;2.38;;;;;;;6.76;59.57;99863.03;4996188;28;20030;-60
2021/03/27 09:07:21;;;;;;;8.73;2.00;;;;;;;6.50;59.71;99863.78;4995366;28;20035;-60
2021/03/27 09:10:29;;;;;;;6.65;1.90;;;;;;;5.91;61.69;99890.91;4995370;28;20094;-60
2021/03/27 09:13:03;;;;;;;3.30;1.20;;;;;;;3.96;72.70;99913.09;4995076;28;20153;-60
2021/03/27 09:15:31;;;;;;;3.25;1.50;;;;;;;2.89;78.07;99930.91;4996282;28;20046;-60
2021/03/27 09:18:08;;;;;;;3.40;1.83;;;;;;;2.85;77.50;99924.34;4996794;28;20388;-60
2021/03/27 09:20:58;;;;;;;6.50;2.50;;;;;;;3.05;79.25;99941.41;4978837;28;20046;-60
2021/03/27 09:23:50;;;;;;;3.42;1.88;;;;;;;3.09;79.20;99942.69;4996842;28;20480;-59
2021/03/27 09:26:18;;;;;;;5.18;3.00;;;;;;;3.05;78.71;99930.81;4980933;28;20061;-60
2021/03/27 09:29:11;;;;;;;2.92;1.90;;;;;;;3.29;77.87;99918.38;4996745;28;20054;-59
2021/03/27 09:31:43;;;;;;;7.13;4.60;;;;;;;3.57;77.59;99927.44;4996353;28;20030;-59
2021/03/27 09:34:51;;;;;;;4.50;2.25;;;;;;;3.48;77.23;99919.72;4995354;28;20038;-59
2021/03/27 09:37:39;;;;;;;4.78;2.60;;;;;;;3.72;76.94;99910.69;4981017;28;20050;-58
2021/03/27 09:40:19;;;;;;;7.75;4.65;;;;;;;4.09;74.83;99913.31;4994627;28;20030;-59
2021/03/27 09:42:53;;;;;;;5.50;3.10;;;;;;;4.54;74.57;99911.41;4995140;28;20130;-59
2021/03/27 09:45:27;;;;;;;4.80;3.28;;;;;;;4.71;73.45;99916.47;4996182;28;20030;-59
2021/03/27 09:48:11;;;;;;;3.85;2.03;;;;;;;4.97;73.47;99916.78;4996629;28;20393;-59
2021/03/27 09:50:41;;;;;;;4.03;1.60;;;;;;;4.89;73.49;99924.88;4995937;28;20572;-59
2021/03/27 09:53:28;;;;;;;7.47;2.83;;;;;;;5.04;73.36;99923.97;4979437;28;20046;-59
2021/03/27 09:56:03;;;;;;;3.20;1.60;;;;;;;5.34;72.31;99930.84;4995142;28;20068;-59
2021/03/27 09:58:38;;;;;;;2.00;1.40;;;;;;;5.62;71.76;99932.69;4963094;28;20019;-59
2021/03/27 10:01:18;;;;;;;4.65;1.60;;;;;;;5.54;71.94;99924.84;4995893;28;20045;-59
2021/03/27 10:04:09;;;;;;;4.43;1.63;;;;;;;6.09;71.05;99936.53;4996023;28;20034;-59
2021/03/27 10:06:41;;;;;;;;;;;;;;;6.15;70.73;99929.59;4995078;28;20069;-59
2021/03/27 10:09:28;;;;;;;5.60;1.83;;;;;;;6.42;69.41;99930.53;4995860;28;19918;-59
2021/03/27 10:12:22;;;;;;;4.45;1.70;;;;;;;6.22;68.65;99933.13;4994297;28;20038;-59
2021/03/27 10:14:53;;;;;;;4.28;1.85;;;;;;;6.28;68.56;99939.47;4957900;28;20062;-61
2021/03/27 10:17:26;;;;;;;4.10;1.50;;;;;;;6.21;68.69;99932.25;4978689;28;20561;-59
2021/03/27 10:20:35;;;;;;;5.10;2.03;;;;;;;6.43;68.01;99937.50;4994646;28;20065;-59
2021/03/27 10:23:05;;;;;;;4.00;1.55;;;;;;;6.70;66.79;99925.13;4905569;29;20578;-59
2021/03/27 10:25:38;;;;;;;33.95;27.90;;;;;;;6.86;67.51;99923.91;4916246;29;20495;-59
2021/03/27 10:28:25;;;;;;;7.72;4.15;;;;;;;7.15;66.08;99929.94;4935255;28;20046;-59
2021/03/27 10:31:10;;;;;;;7.93;3.08;;;;;;;7.06;66.79;99932.81;4995032;28;20053;-59
2021/03/27 10:34:09;;;;;;;6.50;2.75;;;;;;;6.99;67.17;99939.97;4979054;28;20473;-59
2021/03/27 10:36:48;;;;;;;9.70;3.35;;;;;;;7.23;64.15;99948.41;4995297;28;20034;-60
2021/03/27 10:39:39;;;;;;;8.35;2.53;;;;;;;7.07;62.73;99955.75;4978195;28;20358;-59
2021/03/27 10:42:08;;;;;;;;;;;;;;;6.86;63.79;99970.06;4993962;28;20038;-60
2021/03/27 10:44:48;;;;;;;7.10;2.17;;;;;;;6.69;64.68;99980.25;4995471;28;20048;-59
2021/03/27 10:47:42;;;;;;;7.55;2.47;;;;;;;6.36;65.93;99984.56;4994742;28;20043;-59
2021/03/27 10:50:34;;;;;;;4.75;1.85;;;;;;;5.57;69.74;99980.31;4991191;28;20045;-59
2021/03/27 10:53:10;;;;;;;6.15;2.05;;;;;;;4.99;72.05;100006.91;4993915;28;20038;-59
2021/03/27 10:56:12;;;;;;;9.15;2.63;;;;;;;4.96;73.41;100020.56;4993251;28;20042;-61
2021/03/27 10:58:43;;;;;;;6.70;3.00;;;;;;;5.62;72.16;100015.13;4941193;28;20421;-61
2021/03/27 11:01:21;;;;;;;5.22;2.22;;;;;;;6.78;69.30;100012.03;4993189;28;20438;-59
2021/03/27 11:03:55;;;;;;;8.38;2.53;;;;;;;6.92;67.86;100008.41;4993716;28;20034;-59
2021/03/27 11:06:38;;;;;;;6.72;2.00;;;;;;;7.04;66.81;100014.81;4993105;28;20038;-59
2021/03/27 11:09:07;;;;;;;4.60;2.00;;;;;;;8.09;63.06;100025.81;4994564;28;20046;-60
2021/03/27 11:12:00;;;;;;;5.60;2.05;;;;;;;7.95;64.41;100022.31;4994559;28;20050;-60
2021/03/27 11:14:44;;;;;;;11.50;3.63;;;;;;;7.87;64.03;100030.53;4993323;28;20037;-61
2021/03/27 11:17:27;;;;;;;7.75;2.65;;;;;;;8.94;60.60;100022.38;4994015;28;20045;-61
2021/03/27 11:20:15;;;;;;;8.50;2.55;;;;;;;9.37;58.66;100019.06;4993653;28;20018;-59
2021/03/27 11:23:18;;;;;;;8.00;2.80;;;;;;;9.53;56.54;100017.72;4993505;28;20141;-60
2021/03/27 11:25:59;;;;;;;6.43;2.55;;;;;;;9.21;56.64;100005.16;4983199;28;20118;-60
2021/03/27 11:28:25;;;;;;;6.53;2.22;;;;;;;9.17;57.13;99992.41;4994538;28;20030;-60
2021/03/27 11:31:12;;;;;;;4.80;2.20;;;;;;;8.33;57.34;100000.28;4992796;28;20050;-60
2021/03/27 11:34:09;;;;;;;11.73;3.17;;;;;;;8.23;57.86;100002.56;4993202;28;20045;-60
2021/03/27 11:36:37;;;;;;;7.03;2.47;;;;;;;7.88;59.60;100010.81;4978472;28;20489;-60
2021/03/27 11:39:18;;;;;;;4.07;2.08;;;;;;;7.16;60.26;100007.03;4994352;28;20045;-60
2021/03/27 11:41:52;;;;;;;4.65;1.80;;;;;;;6.72;64.00;100036.81;4978192;28;20050;-61
2021/03/27 11:44:30;;;;;;;6.13;3.28;;;;;;;5.92;68.34;100041.59;4993013;28;20026;-61
2021/03/27 11:47:17;;;;;;;5.47;1.83;;;;;;;5.94;70.52;100055.53;4992620;28;20030;-59
2021/03/27 11:50:04;;;;;;;7.97;4.53;;;;;;;6.25;70.43;100040.00;4994146;28;20038;-59
2021/03/27 11:52:42;;;;;;;7.97;4.55;;;;;;;6.21;70.78;100037.94;4992798;28;20035;-59
2021/03/27 11:55:26;;;;;;;5.25;2.45;;;;;;;6.32;70.72;100048.06;4993852;28;20038;-59
2021/03/27 11:58:12;;;;;;;10.32;6.00;;;;;;;6.39;69.01;100040.94;4977160;28;20473;-61
2021/03/27 12:01:04;;;;;;;10.65;3.95;;;;;;;6.44;69.70;100066.97;4992776;28;20493;-60
2021/03/27 12:03:38;;;;;;;6.50;3.08;;;;;;;5.71;70.08;100072.47;4979717;28;20058;-61
2021/03/27 12:06:13;;;;;;;6.05;3.20;;;;;;;5.41;71.99;100072.59;4993471;28;20167;-59
2021/03/27 12:09:00;;;;;;;5.57;4.10;;;;;;;6.74;69.80;100066.72;4992427;28;20133;-59
2021/03/27 12:12:03;;;;;;;7.95;3.30;;;;;;;7.09;70.00;100060.34;4992497;28;20038;-59
2021/03/27 12:14:53;;;;;;;5.10;2.30;;;;;;;7.69;68.53;100065.84;4993760;28;20405;-59
2021/03/27 12:17:26;;;;;;;6.38;2.53;;;;;;;7.53;68.67;100075.03;4992898;28;20493;-59
2021/03/27 12:19:59;;;;;;;4.60;2.28;;;;;;;8.19;65.55;100070.81;4992650;28;20026;-59
2021/03/27 12:23:06;;;;;;;3.30;1.60;;;;;;;7.97;66.47;100063.00;4991931;28;20047;-59
2021/03/27 12:26:03;;;;;;;12.32;7.45;;;;;;;7.71;66.67;100074.47;4985311;28;20409;-60
2021/03/27 12:28:35;;;;;;;87.47;50.70;;;;;;;7.34;66.36;100079.31;4993708;28;20026;-60
2021/03/27 12:31:29;;;;;;;8.75;5.20;;;;;;;6.98;65.52;100086.75;4975768;28;20050;-60
2021/03/27 12:34:02;;;;;;;13.38;7.75;;;;;;;6.97;64.69;100101.91;4992290;28;20046;-60
2021/03/27 12:36:38;;;;;;;13.00;8.05;;;;;;;6.84;63.08;100101.81;4993344;28;20378;-60
2021/03/27 12:39:26;;;;;;;11.68;5.97;;;;;;;6.73;62.50;100119.19;4992272;28;20121;-60
2021/03/27 12:41:54;;;;;;;13.80;5.47;;;;;;;6.47;63.77;100119.84;4993069;28;20050;-60
2021/03/27 12:44:31;;;;;;;14.90;8.18;;;;;;;6.33;62.82;100113.59;4993450;28;20143;-60
2021/03/27 12:47:10;;;;;;;5.78;2.38;;;;;;;6.61;63.24;100126.09;4976059;28;20165;-60
2021/03/27 12:50:20;;;;;;;5.03;2.58;;;;;;;6.14;62.97;100106.25;4992540;28;20022;-60
2021/03/27 12:52:50;;;;;;;5.80;3.28;;;;;;;6.21;61.86;100110.63;4977621;28;20049;-60
2021/03/27 12:55:27;;;;;;;12.43;3.90;;;;;;;6.59;62.50;100118.31;4991958;28;20030;-60
2021/03/27 12:58:21;;;;;;;3.17;2.05;;;;;;;6.83;60.88;100100.19;4992373;28;20023;-60